Time;durP1;ratioP1;P1;durP2;ratioP2;P2;SDS_P1;SDS_P2;PMS_P1;PMS_P2;Temp;Humidity;BMP_temperature;BMP_pressure;BME280_temperature;BME280_humidity;BME280_pressure;Samples;Min_cycle;Max_cycle;Signal;HPM_P1;HPM_P2
2023/09/26 00:00:14;;;;;;;6.55;4.03;;;15.20;99.90;;;;;;5069434;28;20059;-75
2023/09/26 00:02:40;;;;;;;7.90;4.07;;;15.00;99.90;;;;;;5071075;28;20091;-75
2023/09/26 00:05:08;;;;;;;8.25;4.22;;;15.00;99.90;;;;;;5071266;28;20086;-75
2023/09/26 00:07:34;;;;;;;14.95;4.53;;;14.90;99.90;;;;;;5070694;28;20084;-75
2023/09/26 00:10:00;;;;;;;6.72;4.70;;;14.80;99.90;;;;;;5062382;28;20044;-76
2023/09/26 00:12:26;;;;;;;12.43;4.78;;;15.00;99.90;;;;;;5069260;28;20048;-75
2023/09/26 00:14:52;;;;;;;6.15;4.53;;;14.80;99.90;;;;;;5070095;28;20053;-75
2023/09/26 00:17:17;;;;;;;7.03;4.45;;;14.90;99.90;;;;;;5070233;28;20092;-74
2023/09/26 00:19:43;;;;;;;7.22;5.03;;;14.90;99.90;;;;;;5070610;28;20210;-76
2023/09/26 00:22:09;;;;;;;8.13;4.45;;;15.20;99.90;;;;;;5070500;28;20051;-75
2023/09/26 00:24:34;;;;;;;8.43;5.03;;;14.70;99.90;;;;;;5068896;28;20523;-75
2023/09/26 00:27:00;;;;;;;6.85;4.55;;;14.70;99.90;;;;;;5070568;28;20384;-75
2023/09/26 00:29:25;;;;;;;8.13;4.63;;;14.90;99.90;;;;;;5070175;28;20048;-75
2023/09/26 00:31:51;;;;;;;7.93;4.63;;;15.10;99.90;;;;;;5070835;28;20179;-75
2023/09/26 00:34:17;;;;;;;5.53;4.10;;;14.70;99.90;;;;;;5068958;28;20075;-75
2023/09/26 00:36:44;;;;;;;7.47;4.35;;;15.30;99.90;;;;;;5068615;28;20551;-75
2023/09/26 00:39:09;;;;;;;11.52;5.30;;;15.00;99.90;;;;;;5070053;28;20048;-75
2023/09/26 00:41:35;;;;;;;7.10;3.85;;;14.40;99.90;;;;;;5069131;28;20094;-75
2023/09/26 00:44:02;;;;;;;5.75;3.70;;;14.40;99.90;;;;;;5070038;28;20033;-75
2023/09/26 00:46:28;;;;;;;7.45;4.18;;;14.40;99.90;;;;;;5069750;28;20449;-75
2023/09/26 00:48:55;;;;;;;8.30;4.72;;;14.30;99.90;;;;;;5070016;28;20147;-75
2023/09/26 00:51:21;;;;;;;8.05;5.00;;;14.50;99.90;;;;;;5069954;28;20048;-76
2023/09/26 00:53:47;;;;;;;8.45;5.50;;;14.30;99.90;;;;;;5069865;28;20052;-75
2023/09/26 00:56:13;;;;;;;10.65;6.20;;;14.30;99.90;;;;;;5069587;28;21477;-74
2023/09/26 00:58:40;;;;;;;13.10;7.45;;;14.50;99.90;;;;;;5067996;28;20048;-75
2023/09/26 01:01:07;;;;;;;16.88;7.85;;;14.20;99.90;;;;;;5069972;28;20040;-74
2023/09/26 01:03:33;;;;;;;11.48;6.93;;;14.20;99.90;;;;;;5069943;28;20094;-74
2023/09/26 01:05:59;;;;;;;13.70;7.43;;;14.20;99.90;;;;;;5069785;28;20036;-74
2023/09/26 01:08:25;;;;;;;12.73;7.68;;;14.60;99.90;;;;;;5067083;28;20537;-75
2023/09/26 01:10:51;;;;;;;12.68;6.95;;;14.10;99.90;;;;;;5069328;28;20084;-75
2023/09/26 01:13:17;;;;;;;16.75;8.45;;;14.10;99.90;;;;;;5068504;28;20139;-74
2023/09/26 01:15:43;;;;;;;9.38;6.95;;;14.20;99.90;;;;;;5069449;28;20056;-74
2023/09/26 01:18:10;;;;;;;9.38;6.00;;;14.30;99.90;;;;;;5069100;28;20044;-74
2023/09/26 01:20:46;;;;;;;13.75;6.60;;;14.10;99.90;;;;;;5069783;28;20439;-73
2023/09/26 01:23:14;;;;;;;10.50;5.68;;;13.90;99.90;;;;;;5069593;28;20044;-74
2023/09/26 01:25:40;;;;;;;14.27;6.82;;;13.90;99.90;;;;;;5069050;28;20040;-74
2023/09/26 01:28:08;;;;;;;9.43;6.68;;;13.90;99.90;;;;;;5069753;28;20082;-74
2023/09/26 01:30:38;;;;;;;11.98;6.63;;;14.30;99.90;;;;;;5069659;28;20040;-74
2023/09/26 01:33:05;;;;;;;14.70;7.03;;;13.70;99.90;;;;;;5069676;28;20379;-74
2023/09/26 01:35:31;;;;;;;10.00;5.85;;;13.70;99.90;;;;;;5069790;28;20032;-74
2023/09/26 01:37:57;;;;;;;12.07;5.97;;;13.70;99.90;;;;;;5069727;28;20156;-75
2023/09/26 01:40:22;;;;;;;9.82;5.82;;;13.50;99.90;;;;;;5069419;28;20116;-74
2023/09/26 01:42:48;;;;;;;9.85;6.65;;;13.70;99.90;;;;;;5069594;28;20389;-74
2023/09/26 01:45:14;;;;;;;8.63;5.53;;;13.90;99.90;;;;;;5069290;28;20052;-75
2023/09/26 01:47:51;;;;;;;8.07;5.55;;;13.60;99.90;;;;;;5069284;28;20088;-75
2023/09/26 01:50:19;;;;;;;10.52;5.80;;;13.90;99.90;;;;;;5068141;28;20087;-74
2023/09/26 01:52:45;;;;;;;8.60;5.40;;;13.50;99.90;;;;;;5069112;28;20082;-74
2023/09/26 01:55:21;;;;;;;9.30;4.95;;;13.60;99.90;;;;;;5069392;28;20048;-74
2023/09/26 01:57:48;;;;;;;8.93;5.80;;;13.40;99.90;;;;;;5060719;28;20849;-74
2023/09/26 02:00:15;;;;;;;8.82;4.97;;;13.40;99.90;;;;;;5069028;28;20041;-74
2023/09/26 02:02:43;;;;;;;10.60;5.45;;;13.30;99.90;;;;;;5069242;28;20441;-74
2023/09/26 02:05:10;;;;;;;10.45;4.93;;;13.60;99.90;;;;;;5069265;28;20452;-74
2023/09/26 02:07:36;;;;;;;11.40;5.30;;;13.30;99.90;;;;;;5067858;28;20640;-74
2023/09/26 02:10:05;;;;;;;8.15;5.32;;;13.30;99.90;;;;;;5051181;28;20078;-74
2023/09/26 02:12:32;;;;;;;8.63;5.18;;;13.30;99.90;;;;;;5069457;28;20056;-74
2023/09/26 02:15:00;;;;;;;8.13;5.50;;;13.20;99.90;;;;;;5069072;28;20037;-74
2023/09/26 02:17:26;;;;;;;11.45;5.97;;;13.20;99.90;;;;;;5068790;28;20054;-74
2023/09/26 02:19:52;;;;;;;11.77;5.95;;;13.80;99.90;;;;;;5071994;28;20044;-75
2023/09/26 02:22:18;;;;;;;7.32;5.28;;;13.20;99.90;;;;;;5071169;28;20131;-73
2023/09/26 02:24:43;;;;;;;10.05;5.47;;;13.50;99.90;;;;;;5071464;28;20048;-75
2023/09/26 02:27:10;;;;;;;9.05;6.10;;;13.30;99.90;;;;;;5072364;28;20040;-75
2023/09/26 02:29:35;;;;;;;12.75;7.15;;;13.30;99.90;;;;;;5072702;28;20530;-74
2023/09/26 02:32:01;;;;;;;9.88;6.40;;;13.30;99.90;;;;;;5072316;28;20068;-74
2023/09/26 02:34:26;;;;;;;11.55;6.22;;;13.30;99.90;;;;;;5072698;28;20631;-74
2023/09/26 02:36:52;;;;;;;8.43;6.88;;;13.30;99.90;;;;;;5070893;28;20048;-74
2023/09/26 02:39:18;;;;;;;8.70;5.95;;;13.60;99.90;;;;;;5072720;28;20072;-74
2023/09/26 02:41:43;;;;;;;11.65;6.15;;;13.30;99.90;;;;;;5072438;28;20135;-72
2023/09/26 02:44:10;;;;;;;11.05;5.75;;;13.20;99.90;;;;;;5072784;28;20064;-73
2023/09/26 02:46:35;;;;;;;9.40;5.57;;;13.20;99.90;;;;;;5062555;28;20037;-73
2023/09/26 02:49:01;;;;;;;10.18;5.93;;;13.40;99.90;;;;;;5071065;28;20109;-73
2023/09/26 02:51:27;;;;;;;9.65;5.45;;;13.10;99.90;;;;;;5072401;28;20060;-74
2023/09/26 02:53:53;;;;;;;9.20;5.55;;;13.00;99.90;;;;;;5071874;28;20048;-73
2023/09/26 02:56:19;;;;;;;9.52;5.95;;;13.40;99.90;;;;;;5072471;28;20044;-74
2023/09/26 02:58:44;;;;;;;9.25;6.45;;;13.00;99.90;;;;;;5072020;28;20048;-74
2023/09/26 03:01:16;;;;;;;8.45;5.75;;;12.90;99.90;;;;;;5070001;28;20089;-74
2023/09/26 03:03:42;;;;;;;9.13;6.65;;;12.90;99.90;;;;;;5071721;28;20044;-74
2023/09/26 03:06:08;;;;;;;9.63;5.55;;;13.30;99.90;;;;;;5072143;28;20044;-73
2023/09/26 03:08:34;;;;;;;8.93;5.95;;;12.90;99.90;;;;;;5072161;28;20037;-73
2023/09/26 03:10:59;;;;;;;9.63;5.63;;;12.90;99.90;;;;;;5068993;28;20048;-74
2023/09/26 03:13:27;;;;;;;7.80;5.43;;;12.80;99.90;;;;;;5071961;28;20078;-74
2023/09/26 03:15:56;;;;;;;8.55;4.97;;;12.90;99.90;;;;;;5071339;28;20048;-74
2023/09/26 03:18:22;;;;;;;10.27;6.30;;;12.70;99.90;;;;;;5070050;28;20053;-74
2023/09/26 03:20:47;;;;;;;10.68;5.03;;;12.70;99.90;;;;;;5071351;28;20040;-74
2023/09/26 03:23:13;;;;;;;9.48;6.78;;;12.70;99.90;;;;;;5071554;28;20044;-74
2023/09/26 03:25:39;;;;;;;9.55;6.47;;;12.70;99.90;;;;;;5071368;28;20051;-73
2023/09/26 03:28:05;;;;;;;10.00;6.35;;;12.70;99.90;;;;;;5071576;28;20048;-73
2023/09/26 03:30:30;;;;;;;11.38;7.72;;;12.80;99.90;;;;;;5070680;28;20490;-74
2023/09/26 03:32:56;;;;;;;13.00;7.45;;;13.00;99.90;;;;;;5071098;28;20045;-75
2023/09/26 03:35:21;;;;;;;11.95;7.13;;;12.90;99.90;;;;;;5071492;28;20033;-74
2023/09/26 03:37:47;;;;;;;15.15;8.15;;;12.90;99.90;;;;;;5071353;28;20047;-74
2023/09/26 03:40:13;;;;;;;11.27;8.10;;;13.30;99.90;;;;;;5071184;28;20857;-75
2023/09/26 03:42:39;;;;;;;12.85;7.80;;;13.00;99.90;;;;;;5070966;28;20540;-74
2023/09/26 03:45:06;;;;;;;13.90;8.18;;;13.10;99.90;;;;;;5071625;28;20402;-74
2023/09/26 03:47:32;;;;;;;11.32;7.85;;;13.00;99.90;;;;;;5072933;28;20246;-72
2023/09/26 03:49:58;;;;;;;11.00;7.75;;;13.30;99.90;;;;;;5071545;28;20436;-74
2023/09/26 03:52:23;;;;;;;10.10;6.90;;;13.10;99.90;;;;;;5070789;28;20041;-73
2023/09/26 03:54:49;;;;;;;9.50;6.93;;;13.30;99.90;;;;;;5070984;28;20137;-73
2023/09/26 03:57:15;;;;;;;8.70;6.68;;;13.00;99.90;;;;;;5070778;28;20051;-74
2023/09/26 03:59:40;;;;;;;10.68;5.93;;;13.00;99.90;;;;;;5070759;28;20040;-74
2023/09/26 04:02:06;;;;;;;9.57;6.03;;;12.90;99.90;;;;;;5068900;28;20052;-73
2023/09/26 04:04:32;;;;;;;11.85;7.05;;;13.10;99.90;;;;;;5070927;28;20048;-73
2023/09/26 04:06:58;;;;;;;10.93;6.63;;;12.90;99.90;;;;;;5069531;28;20079;-74
2023/09/26 04:09:24;;;;;;;8.38;6.45;;;13.00;99.90;;;;;;5069012;28;20050;-73
2023/09/26 04:11:49;;;;;;;9.43;6.45;;;12.90;99.90;;;;;;5070339;28;20390;-73
2023/09/26 04:14:15;;;;;;;9.55;7.07;;;12.90;99.90;;;;;;5068941;28;20048;-73
2023/09/26 04:16:40;;;;;;;9.38;6.80;;;13.40;99.90;;;;;;5070639;28;20462;-74
2023/09/26 04:19:08;;;;;;;10.63;6.57;;;13.10;99.90;;;;;;5070525;28;20036;-74
2023/09/26 04:21:34;;;;;;;9.52;6.20;;;12.80;99.90;;;;;;5070758;28;20049;-74
2023/09/26 04:24:03;;;;;;;11.52;6.40;;;12.80;99.90;;;;;;5070420;28;20047;-74
2023/09/26 04:26:29;;;;;;;10.43;6.82;;;12.80;99.90;;;;;;5070972;28;20036;-74
2023/09/26 04:28:55;;;;;;;10.00;5.80;;;13.30;99.90;;;;;;5069016;28;20549;-73
2023/09/26 04:31:21;;;;;;;7.65;6.00;;;12.80;99.90;;;;;;5070464;28;20045;-74
2023/09/26 04:33:48;;;;;;;11.27;7.30;;;12.80;99.90;;;;;;5069846;28;20491;-74
2023/09/26 04:36:14;;;;;;;8.38;6.07;;;12.80;99.90;;;;;;5070234;28;20115;-73
2023/09/26 04:38:40;;;;;;;9.75;5.68;;;12.80;99.90;;;;;;5070116;28;20123;-74
2023/09/26 04:41:06;;;;;;;8.85;5.95;;;12.90;99.90;;;;;;5068307;28;20060;-74
2023/09/26 04:43:31;;;;;;;9.20;7.15;;;12.80;99.90;;;;;;5069768;28;20040;-74
2023/09/26 04:45:57;;;;;;;9.65;7.00;;;12.80;99.90;;;;;;5069626;28;20045;-74
2023/09/26 04:48:23;;;;;;;9.10;6.82;;;12.80;99.90;;;;;;5068319;28;20053;-72
2023/09/26 04:50:49;;;;;;;10.07;6.82;;;12.80;99.90;;;;;;5070098;28;20082;-73
2023/09/26 04:53:15;;;;;;;12.05;7.68;;;13.10;99.90;;;;;;5070383;28;20064;-73
2023/09/26 04:55:41;;;;;;;10.15;7.30;;;12.90;99.90;;;;;;5069138;28;20044;-74
2023/09/26 04:58:08;;;;;;;11.85;7.80;;;13.00;99.90;;;;;;5070275;28;20482;-74
2023/09/26 05:00:34;;;;;;;13.30;8.15;;;13.00;99.90;;;;;;5070173;28;20056;-74
2023/09/26 05:03:00;;;;;;;14.10;8.40;;;13.10;99.90;;;;;;5069959;28;20037;-74
2023/09/26 05:05:26;;;;;;;13.93;8.45;;;13.10;99.90;;;;;;5069519;28;20040;-74
2023/09/26 05:07:51;;;;;;;11.73;8.60;;;13.20;99.90;;;;;;5069401;28;20041;-75
2023/09/26 05:10:17;;;;;;;14.45;9.00;;;13.20;99.90;;;;;;5069558;28;20056;-74
2023/09/26 05:12:43;;;;;;;12.45;9.02;;;13.20;99.90;;;;;;5069263;28;20049;-74
2023/09/26 05:15:14;;;;;;;13.65;9.65;;;13.40;99.90;;;;;;5068535;28;20052;-74
2023/09/26 05:17:42;;;;;;;15.45;9.18;;;13.30;99.90;;;;;;5066541;28;20068;-74
2023/09/26 05:20:11;;;;;;;14.18;9.20;;;13.60;99.90;;;;;;5068224;28;20050;-74
2023/09/26 05:22:41;;;;;;;12.68;8.55;;;13.60;99.90;;;;;;5067383;28;20063;-75
2023/09/26 05:25:07;;;;;;;16.73;10.13;;;13.30;99.90;;;;;;5068496;28;20036;-75
2023/09/26 05:27:33;;;;;;;13.82;9.20;;;13.40;99.90;;;;;;5068872;28;20048;-73
2023/09/26 05:29:59;;;;;;;16.63;8.98;;;13.60;99.90;;;;;;5061206;28;20479;-76
2023/09/26 05:32:25;;;;;;;18.40;9.63;;;13.40;99.90;;;;;;5068511;28;20055;-74
2023/09/26 05:34:51;;;;;;;12.77;8.60;;;13.40;99.90;;;;;;5069319;28;20032;-74
2023/09/26 05:37:16;;;;;;;13.20;8.60;;;13.80;99.90;;;;;;5067779;28;20403;-75
2023/09/26 05:39:42;;;;;;;15.18;9.07;;;13.50;99.90;;;;;;5069100;28;20052;-74
2023/09/26 05:42:11;;;;;;;14.82;9.20;;;13.50;99.90;;;;;;5069272;28;20153;-75
2023/09/26 05:44:37;;;;;;;13.98;8.80;;;13.50;99.90;;;;;;5069652;28;20040;-74
2023/09/26 05:47:03;;;;;;;13.82;8.45;;;13.50;99.90;;;;;;5069201;28;20055;-74
2023/09/26 05:49:29;;;;;;;11.93;8.13;;;13.40;99.90;;;;;;5067306;28;20054;-74
2023/09/26 05:51:55;;;;;;;15.10;8.65;;;13.50;99.90;;;;;;5069170;28;20491;-74
2023/09/26 05:54:21;;;;;;;12.15;8.43;;;14.00;99.90;;;;;;5071640;28;20048;-73
2023/09/26 05:56:46;;;;;;;11.25;8.60;;;13.50;99.90;;;;;;5071431;28;20101;-74
2023/09/26 05:59:12;;;;;;;11.38;8.60;;;13.50;99.90;;;;;;5072982;28;20052;-74
2023/09/26 06:01:38;;;;;;;15.50;9.23;;;13.70;99.90;;;;;;5071605;28;20045;-74
2023/09/26 06:04:04;;;;;;;10.73;8.00;;;13.50;99.90;;;;;;5073296;28;20048;-74
2023/09/26 06:06:32;;;;;;;13.52;8.60;;;13.40;99.90;;;;;;5072823;28;20072;-74
2023/09/26 06:08:58;;;;;;;12.65;8.73;;;13.40;99.90;;;;;;5071805;28;20483;-73
2023/09/26 06:11:24;;;;;;;12.27;8.55;;;13.80;99.90;;;;;;5073176;28;20036;-74
2023/09/26 06:13:52;;;;;;;11.02;7.97;;;13.40;99.90;;;;;;5073205;28;20041;-74
2023/09/26 06:16:19;;;;;;;13.18;8.60;;;13.60;99.90;;;;;;5072854;28;20102;-74
2023/09/26 06:18:44;;;;;;;12.77;8.27;;;13.70;99.90;;;;;;5073113;28;20071;-74
2023/09/26 06:21:13;;;;;;;11.77;9.00;;;13.40;99.90;;;;;;5072944;28;20037;-74
2023/09/26 06:23:38;;;;;;;12.98;8.68;;;13.50;99.90;;;;;;5072966;28;20044;-74
2023/09/26 06:26:04;;;;;;;14.00;8.85;;;13.50;99.90;;;;;;5072662;28;20063;-74
2023/09/26 06:28:30;;;;;;;13.63;8.35;;;13.50;99.90;;;;;;5070927;28;20041;-74
2023/09/26 06:30:56;;;;;;;13.25;8.90;;;13.80;99.90;;;;;;5072438;28;20071;-74
2023/09/26 06:33:21;;;;;;;10.95;7.88;;;13.60;99.90;;;;;;5071620;28;20056;-72
2023/09/26 06:35:47;;;;;;;17.17;8.98;;;13.60;99.90;;;;;;5071268;28;20082;-74
2023/09/26 06:38:13;;;;;;;12.27;8.88;;;13.80;99.90;;;;;;5072701;28;20049;-74
2023/09/26 06:40:39;;;;;;;15.88;9.13;;;13.70;99.90;;;;;;5072270;28;20043;-74
2023/09/26 06:43:05;;;;;;;15.13;8.85;;;13.80;99.90;;;;;;5072239;28;20086;-74
2023/09/26 06:45:30;;;;;;;14.32;8.70;;;14.30;99.90;;;;;;5072838;28;20064;-73
2023/09/26 06:47:57;;;;;;;10.98;8.73;;;13.90;99.90;;;;;;5072392;28;20061;-73
2023/09/26 06:50:22;;;;;;;12.00;8.52;;;14.00;99.90;;;;;;5072183;28;20043;-74
2023/09/26 06:52:48;;;;;;;10.88;8.40;;;14.10;99.90;;;;;;5071317;28;20048;-73
2023/09/26 06:55:14;;;;;;;13.77;8.85;;;14.20;99.90;;;;;;5072234;28;20033;-73
2023/09/26 06:57:40;;;;;;;10.70;9.00;;;14.00;99.90;;;;;;5072322;28;20446;-75
2023/09/26 07:00:16;;;;;;;12.52;8.65;;;14.60;99.90;;;;;;5072611;28;20157;-74
2023/09/26 07:02:42;;;;;;;14.57;8.80;;;14.20;99.90;;;;;;5071406;28;20028;-74
2023/09/26 07:05:09;;;;;;;15.68;9.48;;;14.20;99.90;;;;;;5069814;28;20055;-74
2023/09/26 07:07:35;;;;;;;13.85;9.85;;;14.30;99.90;;;;;;5072134;28;20115;-74
2023/09/26 07:10:02;;;;;;;13.98;9.30;;;14.30;99.90;;;;;;5071952;28;20029;-74
2023/09/26 07:12:28;;;;;;;12.30;9.00;;;14.30;99.90;;;;;;5072256;28;20048;-74
2023/09/26 07:14:55;;;;;;;13.68;8.43;;;14.80;99.90;;;;;;5072207;28;20077;-75
2023/09/26 07:17:20;;;;;;;14.48;9.05;;;14.50;99.90;;;;;;5071648;28;20441;-75
2023/09/26 07:19:46;;;;;;;11.57;8.52;;;14.50;99.90;;;;;;5071469;28;20094;-75
2023/09/26 07:22:12;;;;;;;14.07;8.68;;;14.60;99.90;;;;;;5078419;28;20044;-74
2023/09/26 07:24:38;;;;;;;11.68;8.60;;;14.90;99.90;;;;;;5074570;28;20052;-73
2023/09/26 07:27:06;;;;;;;15.02;9.70;;;14.70;99.90;;;;;;5071651;28;20051;-73
2023/09/26 07:29:31;;;;;;;11.05;8.40;;;14.70;99.90;;;;;;5072009;28;20051;-73
2023/09/26 07:31:57;;;;;;;11.90;7.97;;;14.70;99.90;;;;;;5070585;28;20040;-74
2023/09/26 07:34:22;;;;;;;16.92;9.95;;;14.80;99.90;;;;;;5070475;28;20061;-74
2023/09/26 07:36:48;;;;;;;14.02;8.55;;;14.90;99.90;;;;;;5069940;28;20458;-74
2023/09/26 07:39:17;;;;;;;15.68;9.40;;;14.80;99.90;;;;;;5071235;28;20791;-74
2023/09/26 07:41:43;;;;;;;12.27;8.98;;;14.90;99.90;;;;;;5071452;28;20044;-74
2023/09/26 07:44:09;;;;;;;12.15;9.25;;;15.00;99.90;;;;;;5071322;28;20427;-74
2023/09/26 07:46:34;;;;;;;12.63;9.32;;;15.00;99.90;;;;;;5071292;28;20067;-74
2023/09/26 07:49:00;;;;;;;16.65;8.30;;;15.10;99.90;;;;;;5069155;28;20053;-74
2023/09/26 07:51:26;;;;;;;12.85;7.95;;;15.30;99.90;;;;;;5071423;28;20063;-74
2023/09/26 07:53:51;;;;;;;11.02;8.70;;;15.30;99.90;;;;;;5071284;28;20032;-76
2023/09/26 07:56:18;;;;;;;13.00;8.23;;;15.30;99.90;;;;;;5074110;28;20082;-74
2023/09/26 07:58:43;;;;;;;11.98;8.05;;;15.40;99.90;;;;;;5071562;28;20059;-72
2023/09/26 08:01:09;;;;;;;14.30;8.38;;;15.60;99.90;;;;;;5069932;28;20049;-74
2023/09/26 08:03:38;;;;;;;13.85;9.18;;;15.50;99.90;;;;;;5068657;28;20044;-73
2023/09/26 08:08:43;;;;;;;12.10;8.02;;;15.70;99.90;;;;;;5475546;22;20808;-74
2023/09/26 08:11:11;;;;;;;12.45;8.05;;;15.70;99.90;;;;;;5065474;28;20048;-72
2023/09/26 08:13:39;;;;;;;18.00;7.88;;;15.80;99.90;;;;;;5072820;28;20371;-74
2023/09/26 08:16:04;;;;;;;11.82;7.35;;;15.80;99.90;;;;;;5072036;28;20642;-74
2023/09/26 08:18:30;;;;;;;11.23;8.50;;;15.90;99.90;;;;;;5070526;28;20090;-74
2023/09/26 08:20:57;;;;;;;11.13;7.90;;;16.00;99.90;;;;;;5072463;28;20036;-74
2023/09/26 08:23:28;;;;;;;9.90;7.47;;;16.10;99.90;;;;;;5072350;28;20056;-74
2023/09/26 08:26:00;;;;;;;12.13;8.25;;;16.10;99.90;;;;;;5071457;28;20406;-73
2023/09/26 08:28:26;;;;;;;11.75;7.78;;;16.20;99.90;;;;;;5072489;28;20051;-75
2023/09/26 08:30:59;;;;;;;11.82;7.97;;;16.40;99.90;;;;;;5072294;28;20047;-75
2023/09/26 08:33:26;;;;;;;10.85;7.60;;;16.30;99.90;;;;;;5090527;28;20100;-75
2023/09/26 08:35:52;;;;;;;11.95;7.85;;;16.30;99.90;;;;;;5071906;28;20044;-74
2023/09/26 08:38:18;;;;;;;12.45;7.60;;;16.40;99.90;;;;;;5070559;28;20091;-74
2023/09/26 08:40:45;;;;;;;12.02;8.63;;;16.40;99.90;;;;;;5072899;28;20051;-73
2023/09/26 08:43:14;;;;;;;11.80;8.13;;;16.50;99.90;;;;;;5090781;28;20055;-74
2023/09/26 08:45:40;;;;;;;11.73;7.93;;;16.60;99.90;;;;;;5090995;28;20478;-75
2023/09/26 08:48:06;;;;;;;12.90;8.15;;;16.70;99.90;;;;;;5091073;28;20040;-74
2023/09/26 08:50:32;;;;;;;17.55;8.23;;;16.80;99.90;;;;;;5072936;28;20043;-73
2023/09/26 08:52:59;;;;;;;14.68;8.52;;;16.80;99.90;;;;;;5091745;28;20044;-73
2023/09/26 08:55:27;;;;;;;13.98;7.80;;;17.00;99.90;;;;;;5064888;28;20052;-75
2023/09/26 08:57:54;;;;;;;13.23;8.48;;;17.50;99.90;;;;;;5073014;28;20478;-73
2023/09/26 09:00:21;;;;;;;15.68;7.95;;;17.10;99.90;;;;;;5072852;28;20055;-74
2023/09/26 09:02:48;;;;;;;14.38;7.82;;;17.30;99.90;;;;;;5072966;28;20043;-75
2023/09/26 09:05:18;;;;;;;14.57;7.70;;;17.40;99.90;;;;;;5072257;28;20504;-74
2023/09/26 09:07:45;;;;;;;15.73;7.20;;;17.50;99.90;;;;;;5072284;28;20043;-75
2023/09/26 09:10:12;;;;;;;10.98;7.32;;;17.60;99.90;;;;;;5072046;28;20058;-73
2023/09/26 09:12:42;;;;;;;10.57;6.57;;;17.80;99.90;;;;;;5070999;28;20063;-75
2023/09/26 09:15:19;;;;;;;14.70;7.50;;;18.00;99.90;;;;;;5090331;28;20509;-74
2023/09/26 09:17:46;;;;;;;13.38;6.45;;;18.20;99.90;;;;;;5072130;28;20115;-74
2023/09/26 09:20:16;;;;;;;20.17;7.95;;;18.30;99.90;;;;;;5072168;28;20052;-73
2023/09/26 09:22:48;;;;;;;12.90;6.95;;;18.50;99.90;;;;;;5090138;28;20056;-75
2023/09/26 09:25:15;;;;;;;15.25;6.13;;;18.60;99.90;;;;;;5072295;28;20063;-75
2023/09/26 09:27:43;;;;;;;15.80;6.68;;;18.60;99.90;;;;;;5090198;28;20111;-75
2023/09/26 09:30:19;;;;;;;17.08;7.97;;;18.60;99.90;;;;;;5071989;28;20485;-74
2023/09/26 09:32:45;;;;;;;11.95;6.38;;;18.70;99.90;;;;;;5090025;28;20036;-75
2023/09/26 09:35:14;;;;;;;11.23;6.45;;;18.80;99.90;;;;;;5089855;28;20036;-75
2023/09/26 09:37:47;;;;;;;11.20;6.22;;;19.00;99.90;;;;;;5090454;28;20040;-77
2023/09/26 09:40:20;;;;;;;16.45;6.13;;;19.20;99.90;;;;;;5082827;28;20421;-73
2023/09/26 09:42:50;;;;;;;12.85;6.53;;;19.50;99.90;;;;;;5072369;28;20036;-76
2023/09/26 09:45:17;;;;;;;11.27;6.72;;;19.70;99.90;;;;;;5082167;28;20119;-74
2023/09/26 09:47:48;;;;;;;11.75;6.25;;;19.80;99.90;;;;;;5090152;28;20040;-73
2023/09/26 09:50:14;;;;;;;12.13;6.28;;;20.00;99.90;;;;;;5071801;28;20039;-73
2023/09/26 09:52:43;;;;;;;12.48;5.88;;;20.10;99.90;;;;;;5090256;28;20110;-73
2023/09/26 09:55:16;;;;;;;12.68;5.50;;;20.30;99.90;;;;;;5090225;28;20503;-74
2023/09/26 09:57:45;;;;;;;9.73;5.68;;;20.30;99.90;;;;;;5071930;28;20454;-74
2023/09/26 10:00:13;;;;;;;11.15;5.43;;;20.30;99.90;;;;;;5089776;28;20043;-73
2023/09/26 10:02:40;;;;;;;9.18;5.10;;;20.40;99.90;;;;;;5090341;28;20120;-73
2023/09/26 10:05:12;;;;;;;14.30;6.75;;;20.50;99.90;;;;;;5090123;28;20040;-74
2023/09/26 10:07:40;;;;;;;11.15;5.40;;;20.70;99.90;;;;;;5063354;28;20083;-74
2023/09/26 10:10:09;;;;;;;12.25;6.25;;;20.60;99.90;;;;;;5089559;28;20048;-74
2023/09/26 10:12:40;;;;;;;12.98;5.35;;;20.70;99.90;;;;;;5089770;28;20052;-74
2023/09/26 10:15:11;;;;;;;12.45;4.93;;;20.90;99.90;;;;;;5090045;28;20028;-73
2023/09/26 10:17:39;;;;;;;12.10;4.80;;;21.10;99.90;;;;;;5071976;28;20127;-74
2023/09/26 10:20:07;;;;;;;11.25;4.80;;;21.20;99.90;;;;;;5089845;28;20491;-74
2023/09/26 10:22:34;;;;;;;11.38;5.13;;;21.30;99.90;;;;;;5071599;28;20063;-74
2023/09/26 10:25:02;;;;;;;12.15;4.95;;;21.40;99.90;;;;;;5071664;28;20047;-73
2023/09/26 10:27:30;;;;;;;11.23;4.72;;;21.50;99.90;;;;;;5071486;28;20199;-74
2023/09/26 10:29:57;;;;;;;9.48;4.05;;;21.60;99.90;;;;;;5089911;28;20478;-73
2023/09/26 10:32:34;;;;;;;11.48;4.50;;;21.60;99.90;;;;;;5072065;28;20098;-73
2023/09/26 10:35:22;;;;;;;8.98;3.85;;;21.60;99.90;;;;;;5071668;28;20447;-72
2023/09/26 10:38:07;;;;;;;13.93;3.97;;;21.60;99.90;;;;;;5071193;28;20052;-73
2023/09/26 10:40:32;;;;;;;10.02;3.55;;;21.50;99.90;;;;;;5056698;28;20568;-75
2023/09/26 10:42:59;;;;;;;8.45;3.75;;;21.50;99.90;;;;;;5092703;28;20056;-75
2023/09/26 10:45:25;;;;;;;9.90;3.30;;;21.60;99.90;;;;;;5075496;28;20047;-73
2023/09/26 10:47:50;;;;;;;9.98;3.92;;;21.70;99.90;;;;;;5092678;28;20036;-75
2023/09/26 10:50:16;;;;;;;9.10;3.35;;;21.80;99.90;;;;;;5075128;28;20064;-75
2023/09/26 10:52:46;;;;;;;7.57;3.85;;;21.80;99.90;;;;;;5093053;28;20044;-74
2023/09/26 10:55:16;;;;;;;10.10;3.78;;;21.80;99.90;;;;;;5092781;28;20489;-75
2023/09/26 10:57:44;;;;;;;9.90;3.88;;;21.90;99.90;;;;;;5075090;28;20145;-74
2023/09/26 11:00:12;;;;;;;11.88;3.97;;;21.90;99.90;;;;;;5093026;28;20809;-75
2023/09/26 11:02:38;;;;;;;11.57;4.00;;;21.90;99.90;;;;;;5092621;28;20480;-75
2023/09/26 11:05:08;;;;;;;10.50;4.18;;;21.90;99.90;;;;;;5092578;28;20040;-75
2023/09/26 11:07:35;;;;;;;9.25;3.80;;;21.90;99.90;;;;;;5073693;28;20044;-76
2023/09/26 11:10:03;;;;;;;11.05;3.47;;;21.90;99.90;;;;;;5092102;28;20098;-75
2023/09/26 11:12:32;;;;;;;13.40;3.72;;;21.90;99.90;;;;;;5073902;28;20058;-74
2023/09/26 11:15:00;;;;;;;13.88;4.93;;;21.90;99.90;;;;;;5073986;28;20414;-77
2023/09/26 11:17:29;;;;;;;8.27;3.60;;;21.90;99.90;;;;;;5091369;28;20048;-75
2023/09/26 11:20:05;;;;;;;8.48;3.85;;;21.90;99.90;;;;;;5073461;28;20048;-74
2023/09/26 11:22:42;;;;;;;8.70;3.65;;;21.90;99.90;;;;;;5070159;28;20448;-75
2023/09/26 11:25:08;;;;;;;8.65;3.67;;;21.90;99.90;;;;;;5073358;28;20055;-74
2023/09/26 11:27:48;;;;;;;6.43;3.40;;;21.90;99.90;;;;;;5073442;28;20119;-74
2023/09/26 11:30:17;;;;;;;9.02;3.58;;;21.80;99.90;;;;;;5073684;28;20083;-74
2023/09/26 11:32:45;;;;;;;6.60;3.67;;;21.70;99.90;;;;;;5073360;28;20093;-73
2023/09/26 11:35:11;;;;;;;6.70;3.10;;;21.60;99.90;;;;;;5073822;28;20094;-74
2023/09/26 11:37:38;;;;;;;8.30;3.50;;;21.50;99.90;;;;;;5091596;28;20048;-74
2023/09/26 11:40:08;;;;;;;5.95;3.28;;;21.40;99.90;;;;;;5091324;28;20078;-73
2023/09/26 11:43:00;;;;;;;7.43;3.20;;;21.50;99.90;;;;;;5091520;28;20555;-74
2023/09/26 11:45:28;;;;;;;5.25;3.17;;;21.40;99.90;;;;;;5062443;28;20055;-74
2023/09/26 11:47:56;;;;;;;6.43;3.35;;;21.50;99.90;;;;;;5073457;28;20503;-72
2023/09/26 11:50:22;;;;;;;10.00;3.25;;;21.50;99.90;;;;;;5072552;28;20510;-73
2023/09/26 11:52:48;;;;;;;9.60;3.40;;;21.50;99.90;;;;;;5072430;28;20129;-73
2023/09/26 11:55:18;;;;;;;5.80;3.10;;;21.50;99.90;;;;;;5072873;28;20048;-77
2023/09/26 11:57:48;;;;;;;8.65;3.65;;;21.60;99.90;;;;;;5091522;28;20069;-74
2023/09/26 12:00:21;;;;;;;8.52;3.72;;;21.80;99.90;;;;;;5091229;28;20505;-73
2023/09/26 12:02:50;;;;;;;7.85;3.50;;;21.90;99.90;;;;;;5073632;28;20039;-73
2023/09/26 12:05:20;;;;;;;9.45;4.55;;;21.90;99.90;;;;;;5091466;28;20082;-74
2023/09/26 12:07:47;;;;;;;6.82;3.55;;;22.10;99.90;;;;;;5072798;28;20076;-75
2023/09/26 12:10:14;;;;;;;7.55;3.30;;;22.20;99.90;;;;;;5072393;28;20555;-75
2023/09/26 12:12:40;;;;;;;12.07;4.40;;;22.30;99.90;;;;;;5072551;28;20422;-75
2023/09/26 12:15:23;;;;;;;8.20;4.32;;;22.30;99.90;;;;;;5091317;28;20051;-74
2023/09/26 12:17:51;;;;;;;8.50;4.30;;;22.40;99.90;;;;;;5083082;28;20055;-75
2023/09/26 12:20:21;;;;;;;9.65;4.55;;;22.40;99.90;;;;;;5091159;28;20581;-74
2023/09/26 12:22:48;;;;;;;12.57;4.80;;;22.60;99.90;;;;;;5091269;28;20123;-74
2023/09/26 12:25:14;;;;;;;8.23;4.50;;;22.70;99.90;;;;;;5090802;28;20495;-74
2023/09/26 12:27:39;;;;;;;7.03;3.90;;;22.90;99.90;;;;;;5090864;28;20044;-76
2023/09/26 12:30:05;;;;;;;11.80;4.68;;;23.10;99.90;;;;;;5072468;28;20040;-77
2023/09/26 12:32:32;;;;;;;8.80;4.55;;;23.20;99.90;;;;;;5072379;28;20375;-74
2023/09/26 12:34:57;;;;;;;14.85;4.32;;;23.20;99.90;;;;;;5090626;28;20067;-74
2023/09/26 12:37:23;;;;;;;10.32;4.85;;;23.30;99.90;;;;;;5090474;28;20040;-75
2023/09/26 12:39:49;;;;;;;9.60;4.60;;;23.30;99.90;;;;;;5090383;28;20052;-73
2023/09/26 12:42:14;;;;;;;8.60;4.18;;;23.30;99.90;;;;;;5090652;28;20051;-74